Sandrock, Alabama
Current Conditions -  °F | °C
As of 7:55 AM on Friday 31 Oct 2014 (Local Time) from K4A9 Reporting Station
Clear Clear  
Wind Chill: 41°   Ceiling: Unl
Heat Index: 41°   Visibility: 10mi
Dew Point: 37°   Wind: 0mph
Humidity: 87%   Direction: NA
Pressure: 30"   Gusts: NA
Location:  34.1831°N, 85.7726°W
Report Text: K4A9 311255Z AUTO 00000KT 10SM CLR 05/03 A3000 RMK AO2
Loading
Personal Weather Stations






























Interactive Weather Map
Tropical Storm Tracking
New forecast layout! Learn more

10-Day Weather Forecast

Advertisements
Track Severe Weather on mobile